sensor_id;sensor_type;location;lat;lon;timestamp;pressure;altitude;pressure_sealevel;temperature;humidity
17615;BME280;8926;49.720;6.576;2023-11-21T00:00:27;99004.94;;;10.39;100.00
17615;BME280;8926;49.720;6.576;2023-11-21T00:02:52;99009.22;;;10.40;100.00
17615;BME280;8926;49.720;6.576;2023-11-21T00:05:17;99008.50;;;10.38;100.00
17615;BME280;8926;49.720;6.576;2023-11-21T00:07:43;99017.28;;;10.37;100.00
17615;BME280;8926;49.720;6.576;2023-11-21T00:10:09;99014.66;;;10.37;100.00
17615;BME280;8926;49.720;6.576;2023-11-21T00:12:35;99019.88;;;10.37;100.00
17615;BME280;8926;49.720;6.576;2023-11-21T00:15:01;99016.22;;;10.39;100.00
17615;BME280;8926;49.720;6.576;2023-11-21T00:17:27;99016.34;;;10.38;100.00
17615;BME280;8926;49.720;6.576;2023-11-21T00:19:52;99021.56;;;10.38;100.00
17615;BME280;8926;49.720;6.576;2023-11-21T00:22:18;99017.28;;;10.37;100.00
17615;BME280;8926;49.720;6.576;2023-11-21T00:24:44;99017.03;;;10.40;100.00
17615;BME280;8926;49.720;6.576;2023-11-21T00:27:09;99020.63;;;10.39;100.00
17615;BME280;8926;49.720;6.576;2023-11-21T00:29:34;99024.28;;;10.36;100.00
17615;BME280;8926;49.720;6.576;2023-11-21T00:32:00;99020.09;;;10.34;100.00
17615;BME280;8926;49.720;6.576;2023-11-21T00:34:25;99018.41;;;10.33;100.00
17615;BME280;8926;49.720;6.576;2023-11-21T00:36:50;99023.44;;;10.36;100.00
17615;BME280;8926;49.720;6.576;2023-11-21T00:39:15;99023.63;;;10.33;100.00
17615;BME280;8926;49.720;6.576;2023-11-21T00:41:41;99021.97;;;10.32;100.00
17615;BME280;8926;49.720;6.576;2023-11-21T00:44:07;99030.72;;;10.31;100.00
17615;BME280;8926;49.720;6.576;2023-11-21T00:46:32;99028.84;;;10.33;100.00
17615;BME280;8926;49.720;6.576;2023-11-21T00:48:57;99020.09;;;10.34;100.00
17615;BME280;8926;49.720;6.576;2023-11-21T00:51:22;99023.44;;;10.36;100.00
17615;BME280;8926;49.720;6.576;2023-11-21T00:53:48;99025.50;;;10.31;100.00
17615;BME280;8926;49.720;6.576;2023-11-21T00:56:14;99022.81;;;10.32;100.00
17615;BME280;8926;49.720;6.576;2023-11-21T00:58:40;99035.75;;;10.34;100.00
17615;BME280;8926;49.720;6.576;2023-11-21T01:01:09;99034.81;;;10.35;100.00
17615;BME280;8926;49.720;6.576;2023-11-21T01:03:34;99035.75;;;10.34;100.00
17615;BME280;8926;49.720;6.576;2023-11-21T01:06:00;99033.66;;;10.39;100.00
17615;BME280;8926;49.720;6.576;2023-11-21T01:08:25;99046.00;;;10.37;100.00
17615;BME280;8926;49.720;6.576;2023-11-21T01:10:50;99049.53;;;10.36;100.00
17615;BME280;8926;49.720;6.576;2023-11-21T01:13:16;99053.81;;;10.37;100.00
17615;BME280;8926;49.720;6.576;2023-11-21T01:15:41;99052.06;;;10.37;100.00
17615;BME280;8926;49.720;6.576;2023-11-21T01:18:07;99058.09;;;10.38;100.00
17615;BME280;8926;49.720;6.576;2023-11-21T01:20:34;99060.63;;;10.39;100.00
17615;BME280;8926;49.720;6.576;2023-11-21T01:22:59;99060.63;;;10.39;100.00
17615;BME280;8926;49.720;6.576;2023-11-21T01:25:24;99065.59;;;10.42;100.00
17615;BME280;8926;49.720;6.576;2023-11-21T01:27:50;99066.34;;;10.44;100.00
17615;BME280;8926;49.720;6.576;2023-11-21T01:30:15;99071.66;;;10.43;100.00
17615;BME280;8926;49.720;6.576;2023-11-21T01:32:41;99071.47;;;10.46;100.00
17615;BME280;8926;49.720;6.576;2023-11-21T01:35:07;99076.59;;;10.47;100.00
17615;BME280;8926;49.720;6.576;2023-11-21T01:37:33;99085.34;;;10.46;99.98
17615;BME280;8926;49.720;6.576;2023-11-21T01:39:58;99082.75;;;10.46;100.00
17615;BME280;8926;49.720;6.576;2023-11-21T01:42:24;99089.75;;;10.46;100.00
17615;BME280;8926;49.720;6.576;2023-11-21T01:44:49;99087.13;;;10.46;100.00
17615;BME280;8926;49.720;6.576;2023-11-21T01:47:15;99076.88;;;10.43;99.79
17615;BME280;8926;49.720;6.576;2023-11-21T01:49:43;99089.00;;;10.44;99.62
17615;BME280;8926;49.720;6.576;2023-11-21T01:52:10;99090.69;;;10.45;99.90
17615;BME280;8926;49.720;6.576;2023-11-21T01:54:37;99095.81;;;10.46;100.00
17615;BME280;8926;49.720;6.576;2023-11-21T01:57:04;99100.09;;;10.47;100.00
17615;BME280;8926;49.720;6.576;2023-11-21T01:59:38;99088.81;;;10.47;99.22
17615;BME280;8926;49.720;6.576;2023-11-21T02:02:06;99091.31;;;10.48;99.64
17615;BME280;8926;49.720;6.576;2023-11-21T02:04:36;99084.41;;;10.47;98.78
17615;BME280;8926;49.720;6.576;2023-11-21T02:07:02;99088.59;;;10.50;98.58
17615;BME280;8926;49.720;6.576;2023-11-21T02:09:30;99091.94;;;10.52;98.01
17615;BME280;8926;49.720;6.576;2023-11-21T02:11:56;99092.16;;;10.49;98.01
17615;BME280;8926;49.720;6.576;2023-11-21T02:14:24;99093.81;;;10.50;97.78
17615;BME280;8926;49.720;6.576;2023-11-21T02:16:50;99095.69;;;10.48;97.65
17615;BME280;8926;49.720;6.576;2023-11-21T02:19:20;99102.59;;;10.49;97.49
17615;BME280;8926;49.720;6.576;2023-11-21T02:21:49;99106.34;;;10.45;97.06
17615;BME280;8926;49.720;6.576;2023-11-21T02:24:15;99108.03;;;10.46;97.05
17615;BME280;8926;49.720;6.576;2023-11-21T02:26:40;99110.09;;;10.41;96.81
17615;BME280;8926;49.720;6.576;2023-11-21T02:29:06;99099.88;;;10.38;96.98
17615;BME280;8926;49.720;6.576;2023-11-21T02:31:35;99102.69;;;10.35;96.76
17615;BME280;8926;49.720;6.576;2023-11-21T02:34:02;99114.06;;;10.34;97.17
17615;BME280;8926;49.720;6.576;2023-11-21T02:36:28;99128.06;;;10.33;96.50
17615;BME280;8926;49.720;6.576;2023-11-21T02:38:53;99128.06;;;10.33;96.66
17615;BME280;8926;49.720;6.576;2023-11-21T02:41:18;99129.00;;;10.32;96.82
17615;BME280;8926;49.720;6.576;2023-11-21T02:43:44;99129.94;;;10.31;96.88
17615;BME280;8926;49.720;6.576;2023-11-21T02:46:09;99143.09;;;10.29;96.70
17615;BME280;8926;49.720;6.576;2023-11-21T02:48:34;99144.84;;;10.29;96.83
17615;BME280;8926;49.720;6.576;2023-11-21T02:51:01;99148.59;;;10.25;97.54
17615;BME280;8926;49.720;6.576;2023-11-21T02:53:26;99153.28;;;10.19;97.25
17615;BME280;8926;49.720;6.576;2023-11-21T02:55:51;99159.34;;;10.20;97.89
17615;BME280;8926;49.720;6.576;2023-11-21T02:58:17;99147.22;;;10.19;97.94
17615;BME280;8926;49.720;6.576;2023-11-21T03:00:42;99156.63;;;10.22;97.92
17615;BME280;8926;49.720;6.576;2023-11-21T03:03:07;99149.72;;;10.20;97.86
17615;BME280;8926;49.720;6.576;2023-11-21T03:05:33;99144.50;;;10.20;97.71
17615;BME280;8926;49.720;6.576;2023-11-21T03:08:00;99144.50;;;10.20;98.02
17615;BME280;8926;49.720;6.576;2023-11-21T03:10:26;99153.28;;;10.19;97.32
17615;BME280;8926;49.720;6.576;2023-11-21T03:12:52;99156.78;;;10.18;97.37
17615;BME280;8926;49.720;6.576;2023-11-21T03:15:17;99157.81;;;10.16;97.69
17615;BME280;8926;49.720;6.576;2023-11-21T03:17:43;99155.13;;;10.17;97.44
17615;BME280;8926;49.720;6.576;2023-11-21T03:20:08;99160.34;;;10.17;97.49
17615;BME280;8926;49.720;6.576;2023-11-21T03:22:37;99172.44;;;10.18;97.37
17615;BME280;8926;49.720;6.576;2023-11-21T03:25:03;99177.66;;;10.18;97.37
17615;BME280;8926;49.720;6.576;2023-11-21T03:27:30;99178.44;;;10.20;97.85
17615;BME280;8926;49.720;6.576;2023-11-21T03:29:55;99176.84;;;10.18;97.37
17615;BME280;8926;49.720;6.576;2023-11-21T03:32:20;99181.06;;;10.20;97.61
17615;BME280;8926;49.720;6.576;2023-11-21T03:34:56;99188.09;;;10.18;97.58
17615;BME280;8926;49.720;6.576;2023-11-21T03:37:23;99179.44;;;10.18;97.66
17615;BME280;8926;49.720;6.576;2023-11-21T03:39:48;99186.44;;;10.17;97.73
17615;BME280;8926;49.720;6.576;2023-11-21T03:42:13;99186.44;;;10.17;98.27
17615;BME280;8926;49.720;6.576;2023-11-21T03:44:39;99196.13;;;10.15;98.25
17615;BME280;8926;49.720;6.576;2023-11-21T03:47:04;99207.72;;;10.11;98.33
17615;BME280;8926;49.720;6.576;2023-11-21T03:49:30;99201.66;;;10.11;98.71
17615;BME280;8926;49.720;6.576;2023-11-21T03:51:56;99207.91;;;10.08;98.07
17615;BME280;8926;49.720;6.576;2023-11-21T03:54:21;99210.44;;;10.10;98.03
17615;BME280;8926;49.720;6.576;2023-11-21T03:56:46;99216.69;;;10.07;98.59
17615;BME280;8926;49.720;6.576;2023-11-21T03:59:11;99225.44;;;10.06;97.93
17615;BME280;8926;49.720;6.576;2023-11-21T04:01:37;99212.50;;;10.05;98.24
17615;BME280;8926;49.720;6.576;2023-11-21T04:04:03;99220.41;;;10.03;98.74
17615;BME280;8926;49.720;6.576;2023-11-21T04:06:28;99223.97;;;10.02;98.10
17615;BME280;8926;49.720;6.576;2023-11-21T04:08:54;99229.00;;;10.05;97.97
17615;BME280;8926;49.720;6.576;2023-11-21T04:11:19;99227.13;;;10.07;97.26
17615;BME280;8926;49.720;6.576;2023-11-21T04:13:44;99227.97;;;10.08;96.35
17615;BME280;8926;49.720;6.576;2023-11-21T04:16:12;99233.81;;;10.11;96.76
17615;BME280;8926;49.720;6.576;2023-11-21T04:18:38;99228.59;;;10.11;96.14
17615;BME280;8926;49.720;6.576;2023-11-21T04:21:06;99239.66;;;10.15;95.67
17615;BME280;8926;49.720;6.576;2023-11-21T04:23:33;99246.13;;;10.09;95.24
17615;BME280;8926;49.720;6.576;2023-11-21T04:25:58;99251.53;;;10.06;95.28
17615;BME280;8926;49.720;6.576;2023-11-21T04:28:24;99258.53;;;10.06;95.37
17615;BME280;8926;49.720;6.576;2023-11-21T04:30:50;99262.16;;;10.03;95.53
17615;BME280;8926;49.720;6.576;2023-11-21T04:33:15;99260.69;;;9.99;95.79
17615;BME280;8926;49.720;6.576;2023-11-21T04:35:41;99260.69;;;9.99;95.95
17615;BME280;8926;49.720;6.576;2023-11-21T04:38:06;99269.44;;;9.98;95.96
17615;BME280;8926;49.720;6.576;2023-11-21T04:40:31;99272.78;;;10.00;96.83
17615;BME280;8926;49.720;6.576;2023-11-21T04:42:57;99269.25;;;10.01;96.33
17615;BME280;8926;49.720;6.576;2023-11-21T04:45:22;99281.56;;;9.99;96.27
17615;BME280;8926;49.720;6.576;2023-11-21T04:47:47;99279.88;;;9.98;96.52
17615;BME280;8926;49.720;6.576;2023-11-21T04:50:13;99281.75;;;9.96;97.26
17615;BME280;8926;49.720;6.576;2023-11-21T04:52:38;99283.41;;;9.97;96.92
17615;BME280;8926;49.720;6.576;2023-11-21T04:55:04;99291.25;;;9.97;97.46
17615;BME280;8926;49.720;6.576;2023-11-21T04:57:31;99287.69;;;9.98;97.42
17615;BME280;8926;49.720;6.576;2023-11-21T04:59:57;99292.19;;;9.96;97.09
17615;BME280;8926;49.720;6.576;2023-11-21T05:02:22;99286.31;;;9.93;97.30
17615;BME280;8926;49.720;6.576;2023-11-21T05:04:48;99287.31;;;9.90;96.93
17615;BME280;8926;49.720;6.576;2023-11-21T05:07:13;99285.28;;;9.95;97.71
17615;BME280;8926;49.720;6.576;2023-11-21T05:09:45;99283.59;;;9.94;96.82
17615;BME280;8926;49.720;6.576;2023-11-21T05:12:12;99279.22;;;9.95;96.98
17615;BME280;8926;49.720;6.576;2023-11-21T05:14:37;99274.66;;;9.98;97.95
17615;BME280;8926;49.720;6.576;2023-11-21T05:17:03;99287.59;;;10.00;97.03
17615;BME280;8926;49.720;6.576;2023-11-21T05:19:29;99279.03;;;9.98;96.55
17615;BME280;8926;49.720;6.576;2023-11-21T05:21:54;99286.22;;;9.94;96.54
17615;BME280;8926;49.720;6.576;2023-11-21T05:24:20;99297.56;;;9.93;96.23
17615;BME280;8926;49.720;6.576;2023-11-21T05:26:45;99288.81;;;9.94;96.49
17615;BME280;8926;49.720;6.576;2023-11-21T05:29:10;99289.56;;;9.96;96.72
17615;BME280;8926;49.720;6.576;2023-11-21T05:31:36;99297.41;;;9.96;95.93
17615;BME280;8926;49.720;6.576;2023-11-21T05:34:03;99295.72;;;9.95;95.67
17615;BME280;8926;49.720;6.576;2023-11-21T05:36:28;99306.34;;;9.92;95.66
17615;BME280;8926;49.720;6.576;2023-11-21T05:38:53;99303.72;;;9.92;95.88
17615;BME280;8926;49.720;6.576;2023-11-21T05:41:19;99306.53;;;9.89;96.36
17615;BME280;8926;49.720;6.576;2023-11-21T05:43:44;99315.28;;;9.88;96.53
17615;BME280;8926;49.720;6.576;2023-11-21T05:46:09;99310.28;;;9.85;96.29
17615;BME280;8926;49.720;6.576;2023-11-21T05:48:34;99303.38;;;9.84;96.44
17615;BME280;8926;49.720;6.576;2023-11-21T05:51:04;99313.91;;;9.82;97.12
17615;BME280;8926;49.720;6.576;2023-11-21T05:53:29;99320.72;;;9.85;97.27
17615;BME280;8926;49.720;6.576;2023-11-21T05:55:55;99324.06;;;9.87;97.15
17615;BME280;8926;49.720;6.576;2023-11-21T05:58:20;99324.06;;;9.87;97.16
17615;BME280;8926;49.720;6.576;2023-11-21T06:00:45;99330.22;;;9.86;97.38
17615;BME280;8926;49.720;6.576;2023-11-21T06:03:10;99334.69;;;9.84;97.00
17615;BME280;8926;49.720;6.576;2023-11-21T06:05:36;99333.75;;;9.85;97.44
17615;BME280;8926;49.720;6.576;2023-11-21T06:08:01;99336.38;;;9.85;97.87
17615;BME280;8926;49.720;6.576;2023-11-21T06:10:26;99347.53;;;9.87;97.61
17615;BME280;8926;49.720;6.576;2023-11-21T06:12:53;99352.84;;;9.85;98.00
17615;BME280;8926;49.720;6.576;2023-11-21T06:15:19;99357.22;;;9.85;98.05
17615;BME280;8926;49.720;6.576;2023-11-21T06:17:46;99362.44;;;9.85;97.80
17615;BME280;8926;49.720;6.576;2023-11-21T06:20:15;99362.63;;;9.82;97.58
17615;BME280;8926;49.720;6.576;2023-11-21T06:22:43;99363.56;;;9.81;97.18
17615;BME280;8926;49.720;6.576;2023-11-21T06:25:10;99363.00;;;9.76;97.13
17615;BME280;8926;49.720;6.576;2023-11-21T06:27:39;99364.00;;;9.73;97.81
17615;BME280;8926;49.720;6.576;2023-11-21T06:30:06;99367.47;;;9.74;97.46
17615;BME280;8926;49.720;6.576;2023-11-21T06:32:32;99365.88;;;9.71;97.18
17615;BME280;8926;49.720;6.576;2023-11-21T06:34:57;99369.88;;;9.77;97.24
17615;BME280;8926;49.720;6.576;2023-11-21T06:37:28;99369.72;;;9.80;97.17
17615;BME280;8926;49.720;6.576;2023-11-21T06:39:54;99379.97;;;9.83;96.94
17615;BME280;8926;49.720;6.576;2023-11-21T06:42:20;99381.63;;;9.84;96.11
17615;BME280;8926;49.720;6.576;2023-11-21T06:44:46;99383.50;;;9.82;96.32
17615;BME280;8926;49.720;6.576;2023-11-21T06:47:11;99390.56;;;9.80;96.61
17615;BME280;8926;49.720;6.576;2023-11-21T06:49:37;99393.38;;;9.77;96.64
17615;BME280;8926;49.720;6.576;2023-11-21T06:52:03;99402.28;;;9.73;96.58
17615;BME280;8926;49.720;6.576;2023-11-21T06:54:31;99414.66;;;9.69;97.15
17615;BME280;8926;49.720;6.576;2023-11-21T06:56:56;99413.84;;;9.69;97.85
17615;BME280;8926;49.720;6.576;2023-11-21T06:59:22;99417.38;;;9.68;97.44
17615;BME280;8926;49.720;6.576;2023-11-21T07:01:47;99419.03;;;9.69;97.06
17615;BME280;8926;49.720;6.576;2023-11-21T07:04:12;99424.09;;;9.72;97.00
17615;BME280;8926;49.720;6.576;2023-11-21T07:06:37;99429.03;;;9.76;96.93
17615;BME280;8926;49.720;6.576;2023-11-21T07:09:03;99435.09;;;9.77;96.97
17615;BME280;8926;49.720;6.576;2023-11-21T07:11:28;99444.59;;;9.78;96.81
17615;BME280;8926;49.720;6.576;2023-11-21T07:13:53;99444.59;;;9.78;95.91
17615;BME280;8926;49.720;6.576;2023-11-21T07:16:19;99451.69;;;9.76;95.77
17615;BME280;8926;49.720;6.576;2023-11-21T07:18:44;99456.91;;;9.76;95.92
17615;BME280;8926;49.720;6.576;2023-11-21T07:21:10;99463.03;;;9.75;96.36
17615;BME280;8926;49.720;6.576;2023-11-21T07:23:37;99466.50;;;9.75;96.96
17615;BME280;8926;49.720;6.576;2023-11-21T07:26:02;99471.63;;;9.77;96.59
17615;BME280;8926;49.720;6.576;2023-11-21T07:28:29;99474.22;;;9.77;97.10
17615;BME280;8926;49.720;6.576;2023-11-21T07:30:55;99475.16;;;9.76;97.39
17615;BME280;8926;49.720;6.576;2023-11-21T07:33:20;99479.44;;;9.77;97.54
17615;BME280;8926;49.720;6.576;2023-11-21T07:35:46;99482.81;;;9.79;97.27
17615;BME280;8926;49.720;6.576;2023-11-21T07:38:12;99480.97;;;9.81;97.18
17615;BME280;8926;49.720;6.576;2023-11-21T07:40:38;99493.06;;;9.82;97.23
17615;BME280;8926;49.720;6.576;2023-11-21T07:43:03;99489.72;;;9.80;97.78
17615;BME280;8926;49.720;6.576;2023-11-21T07:45:28;99499.22;;;9.81;97.24
17615;BME280;8926;49.720;6.576;2023-11-21T07:47:54;99505.19;;;9.83;97.83
17615;BME280;8926;49.720;6.576;2023-11-21T07:50:21;99504.19;;;9.85;98.22
17615;BME280;8926;49.720;6.576;2023-11-21T07:52:48;99495.41;;;9.86;97.57
17615;BME280;8926;49.720;6.576;2023-11-21T07:55:13;99501.28;;;9.90;97.19
17615;BME280;8926;49.720;6.576;2023-11-21T07:57:39;99506.22;;;9.95;97.97
17615;BME280;8926;49.720;6.576;2023-11-21T08:00:05;99510.44;;;9.97;97.67
17615;BME280;8926;49.720;6.576;2023-11-21T08:02:34;99513.03;;;9.97;97.25
17615;BME280;8926;49.720;6.576;2023-11-21T08:04:59;99519.03;;;9.99;97.48
17615;BME280;8926;49.720;6.576;2023-11-21T08:07:25;99523.47;;;9.97;97.46
17615;BME280;8926;49.720;6.576;2023-11-21T08:09:51;99520.88;;;9.97;96.97
17615;BME280;8926;49.720;6.576;2023-11-21T08:12:17;99524.16;;;10.01;97.39
17615;BME280;8926;49.720;6.576;2023-11-21T08:14:43;99530.22;;;10.01;97.09
17615;BME280;8926;49.720;6.576;2023-11-21T08:17:09;99536.28;;;10.02;97.12
17615;BME280;8926;49.720;6.576;2023-11-21T08:19:35;99531.06;;;10.02;97.17
17615;BME280;8926;49.720;6.576;2023-11-21T08:22:02;99539.53;;;10.05;97.18
17615;BME280;8926;49.720;6.576;2023-11-21T08:24:27;99542.16;;;10.05;97.67
17615;BME280;8926;49.720;6.576;2023-11-21T08:26:52;99543.84;;;10.06;97.27
17615;BME280;8926;49.720;6.576;2023-11-21T08:29:19;99544.69;;;10.07;96.95
17615;BME280;8926;49.720;6.576;2023-11-21T08:31:45;99536.75;;;10.08;97.63
17615;BME280;8926;49.720;6.576;2023-11-21T08:34:13;99535.91;;;10.08;97.67
17615;BME280;8926;49.720;6.576;2023-11-21T08:36:43;99545.34;;;10.10;97.53
17615;BME280;8926;49.720;6.576;2023-11-21T08:39:08;99541.59;;;10.14;97.40
17615;BME280;8926;49.720;6.576;2023-11-21T08:41:34;99541.44;;;10.17;97.33
17615;BME280;8926;49.720;6.576;2023-11-21T08:44:00;99541.28;;;10.20;97.59
17615;BME280;8926;49.720;6.576;2023-11-21T08:46:25;99534.22;;;10.23;97.23
17615;BME280;8926;49.720;6.576;2023-11-21T08:48:51;99540.09;;;10.26;96.85
17615;BME280;8926;49.720;6.576;2023-11-21T08:51:17;99544.13;;;10.32;97.31
17615;BME280;8926;49.720;6.576;2023-11-21T08:53:43;99546.38;;;10.38;97.00
17615;BME280;8926;49.720;6.576;2023-11-21T08:56:14;99550.28;;;10.45;97.08
17615;BME280;8926;49.720;6.576;2023-11-21T08:58:40;99549.94;;;10.51;96.28
17615;BME280;8926;49.720;6.576;2023-11-21T09:01:06;99560.00;;;10.57;95.95
17615;BME280;8926;49.720;6.576;2023-11-21T09:03:32;99562.34;;;10.62;95.46
17615;BME280;8926;49.720;6.576;2023-11-21T09:05:59;99562.19;;;10.65;94.65
17615;BME280;8926;49.720;6.576;2023-11-21T09:08:25;99561.97;;;10.68;94.07
17615;BME280;8926;49.720;6.576;2023-11-21T09:10:50;99569.88;;;10.66;93.70
17615;BME280;8926;49.720;6.576;2023-11-21T09:13:15;99576.81;;;10.67;93.54
17615;BME280;8926;49.720;6.576;2023-11-21T09:15:42;99576.63;;;10.70;93.77
17615;BME280;8926;49.720;6.576;2023-11-21T09:18:08;99574.75;;;10.72;93.09
17615;BME280;8926;49.720;6.576;2023-11-21T09:20:35;99582.25;;;10.78;92.31
17615;BME280;8926;49.720;6.576;2023-11-21T09:23:00;99583.66;;;10.84;92.17
17615;BME280;8926;49.720;6.576;2023-11-21T09:25:26;99585.06;;;10.90;91.88
17615;BME280;8926;49.720;6.576;2023-11-21T09:27:51;99590.81;;;10.95;91.54
17615;BME280;8926;49.720;6.576;2023-11-21T09:30:16;99592.31;;;10.99;90.75
17615;BME280;8926;49.720;6.576;2023-11-21T09:32:42;99588.94;;;10.97;90.08
17615;BME280;8926;49.720;6.576;2023-11-21T09:35:10;99606.13;;;11.01;90.94
17615;BME280;8926;49.720;6.576;2023-11-21T09:37:36;99605.13;;;11.03;90.38
17615;BME280;8926;49.720;6.576;2023-11-21T09:40:04;99615.19;;;11.09;90.65
17615;BME280;8926;49.720;6.576;2023-11-21T09:42:36;99612.31;;;11.14;90.56
17615;BME280;8926;49.720;6.576;2023-11-21T09:45:26;99615.47;;;11.19;90.21
17615;BME280;8926;49.720;6.576;2023-11-21T09:47:56;99619.00;;;11.18;90.25
17615;BME280;8926;49.720;6.576;2023-11-21T09:50:21;99617.34;;;11.17;89.98
17615;BME280;8926;49.720;6.576;2023-11-21T09:52:55;99618.81;;;11.21;89.71
17615;BME280;8926;49.720;6.576;2023-11-21T09:55:25;99622.38;;;11.20;89.28
17615;BME280;8926;49.720;6.576;2023-11-21T09:57:53;99620.50;;;11.22;88.80
17615;BME280;8926;49.720;6.576;2023-11-21T10:00:18;99624.72;;;11.25;88.76
17615;BME280;8926;49.720;6.576;2023-11-21T10:02:46;99623.88;;;11.24;88.34
17615;BME280;8926;49.720;6.576;2023-11-21T10:05:14;99629.56;;;11.31;88.77
17615;BME280;8926;49.720;6.576;2023-11-21T10:07:42;99626.69;;;11.35;88.59
17615;BME280;8926;49.720;6.576;2023-11-21T10:10:09;99633.22;;;11.42;88.72
17615;BME280;8926;49.720;6.576;2023-11-21T10:12:35;99625.91;;;11.47;88.41
17615;BME280;8926;49.720;6.576;2023-11-21T10:15:03;99629.06;;;11.52;88.19
17615;BME280;8926;49.720;6.576;2023-11-21T10:17:31;99630.38;;;11.60;88.34
17615;BME280;8926;49.720;6.576;2023-11-21T10:20:04;99631.03;;;11.63;87.41
17615;BME280;8926;49.720;6.576;2023-11-21T10:22:42;99639.72;;;11.64;87.15
17615;BME280;8926;49.720;6.576;2023-11-21T10:25:12;99649.06;;;11.68;86.80
17615;BME280;8926;49.720;6.576;2023-11-21T10:27:40;99638.59;;;11.68;87.10
17615;BME280;8926;49.720;6.576;2023-11-21T10:30:14;99637.09;;;11.64;86.01
17615;BME280;8926;49.720;6.576;2023-11-21T10:32:42;99638.59;;;11.68;86.20
17615;BME280;8926;49.720;6.576;2023-11-21T10:35:08;99638.78;;;11.65;85.73
17615;BME280;8926;49.720;6.576;2023-11-21T10:37:38;99632.72;;;11.64;85.32
17615;BME280;8926;49.720;6.576;2023-11-21T10:40:07;99643.84;;;11.68;86.00
17615;BME280;8926;49.720;6.576;2023-11-21T10:42:33;99637.44;;;11.72;85.82
17615;BME280;8926;49.720;6.576;2023-11-21T10:44:58;99639.13;;;11.73;85.32
17615;BME280;8926;49.720;6.576;2023-11-21T10:47:24;99644.34;;;11.73;85.54
17615;BME280;8926;49.720;6.576;2023-11-21T10:49:49;99637.84;;;11.80;85.40
17615;BME280;8926;49.720;6.576;2023-11-21T10:52:15;99641.00;;;11.85;85.29
17615;BME280;8926;49.720;6.576;2023-11-21T10:54:42;99639.59;;;11.94;85.27
17615;BME280;8926;49.720;6.576;2023-11-21T10:57:08;99643.00;;;12.08;84.80
17615;BME280;8926;49.720;6.576;2023-11-21T10:59:34;99642.22;;;12.20;84.36
17615;BME280;8926;49.720;6.576;2023-11-21T11:02:01;99649.84;;;12.23;83.72
17615;BME280;8926;49.720;6.576;2023-11-21T11:04:28;99642.53;;;12.29;83.26
17615;BME280;8926;49.720;6.576;2023-11-21T11:06:56;99647.09;;;12.39;83.74
17615;BME280;8926;49.720;6.576;2023-11-21T11:09:22;99647.09;;;12.52;83.55
17615;BME280;8926;49.720;6.576;2023-11-21T11:11:48;99647.22;;;12.63;83.48
17615;BME280;8926;49.720;6.576;2023-11-21T11:14:14;99653.00;;;12.68;82.08
17615;BME280;8926;49.720;6.576;2023-11-21T11:16:40;99650.50;;;12.79;80.53
17615;BME280;8926;49.720;6.576;2023-11-21T11:19:09;99642.34;;;12.97;80.71
17615;BME280;8926;49.720;6.576;2023-11-21T11:21:55;99636.25;;;13.09;79.36
17615;BME280;8926;49.720;6.576;2023-11-21T11:32:43;99629.53;;;13.05;79.94
17615;BME280;8926;49.720;6.576;2023-11-21T11:35:24;99637.91;;;13.10;78.90
17615;BME280;8926;49.720;6.576;2023-11-21T11:37:52;99633.13;;;13.16;78.72
17615;BME280;8926;49.720;6.576;2023-11-21T11:40:18;99635.47;;;13.57;78.73
17615;BME280;8926;49.720;6.576;2023-11-21T11:42:57;99635.63;;;13.43;78.41
17615;BME280;8926;49.720;6.576;2023-11-21T11:45:26;99638.34;;;13.29;78.54
17615;BME280;8926;49.720;6.576;2023-11-21T11:47:57;99639.22;;;13.17;77.72
17615;BME280;8926;49.720;6.576;2023-11-21T11:50:22;99636.69;;;13.15;77.56
17615;BME280;8926;49.720;6.576;2023-11-21T11:52:50;99634.34;;;13.11;77.92
17615;BME280;8926;49.720;6.576;2023-11-21T11:55:18;99637.72;;;13.13;77.28
17615;BME280;8926;49.720;6.576;2023-11-21T11:57:45;99635.50;;;13.07;77.61
17615;BME280;8926;49.720;6.576;2023-11-21T12:02:52;99639.59;;;12.85;75.98
17615;BME280;8926;49.720;6.576;2023-11-21T12:05:19;99644.22;;;12.95;77.19
17615;BME280;8926;49.720;6.576;2023-11-21T12:07:49;99645.47;;;13.02;76.36
17615;BME280;8926;49.720;6.576;2023-11-21T12:10:17;99636.69;;;13.15;76.42
17615;BME280;8926;49.720;6.576;2023-11-21T12:12:48;99634.16;;;13.14;75.88
17615;BME280;8926;49.720;6.576;2023-11-21T12:15:14;99634.78;;;13.30;75.94
17615;BME280;8926;49.720;6.576;2023-11-21T12:17:43;99639.59;;;13.49;76.36
17615;BME280;8926;49.720;6.576;2023-11-21T12:20:09;99636.56;;;13.79;73.49
17615;BME280;8926;49.720;6.576;2023-11-21T12:22:50;99635.81;;;14.13;72.22
17615;BME280;8926;49.720;6.576;2023-11-21T12:25:17;99630.84;;;14.45;72.37
17615;BME280;8926;49.720;6.576;2023-11-21T12:27:47;99636.72;;;14.49;72.55
17615;BME280;8926;49.720;6.576;2023-11-21T12:30:15;99641.13;;;14.24;72.23
17615;BME280;8926;49.720;6.576;2023-11-21T12:32:49;99643.19;;;14.08;71.93
17615;BME280;8926;49.720;6.576;2023-11-21T12:35:24;99650.53;;;14.03;70.99
17615;BME280;8926;49.720;6.576;2023-11-21T12:37:51;99645.97;;;13.94;73.88
17615;BME280;8926;49.720;6.576;2023-11-21T12:40:17;99654.00;;;13.80;73.22
17615;BME280;8926;49.720;6.576;2023-11-21T12:42:44;99663.81;;;13.65;73.37
17615;BME280;8926;49.720;6.576;2023-11-21T12:47:43;99673.63;;;13.38;74.24
17615;BME280;8926;49.720;6.576;2023-11-21T12:50:09;99673.63;;;13.25;74.99
17615;BME280;8926;49.720;6.576;2023-11-21T12:52:46;99690.38;;;13.10;74.75
17615;BME280;8926;49.720;6.576;2023-11-21T12:55:16;99679.47;;;13.03;75.20
17615;BME280;8926;49.720;6.576;2023-11-21T12:57:43;99678.00;;;12.99;75.23
17615;BME280;8926;49.720;6.576;2023-11-21T13:00:08;99681.16;;;12.91;74.56
17615;BME280;8926;49.720;6.576;2023-11-21T13:02:38;99685.31;;;12.81;74.99
17615;BME280;8926;49.720;6.576;2023-11-21T13:05:07;99685.94;;;12.72;74.77
17615;BME280;8926;49.720;6.576;2023-11-21T13:07:42;99677.53;;;12.67;75.17
17615;BME280;8926;49.720;6.576;2023-11-21T13:10:12;99688.13;;;12.66;76.43
17615;BME280;8926;49.720;6.576;2023-11-21T13:12:43;99698.72;;;12.64;76.72
17615;BME280;8926;49.720;6.576;2023-11-21T13:15:09;99692.19;;;12.57;76.13
17615;BME280;8926;49.720;6.576;2023-11-21T13:17:35;99699.31;;;12.55;76.89
17615;BME280;8926;49.720;6.576;2023-11-21T13:20:00;99696.13;;;12.50;77.35
17615;BME280;8926;49.720;6.576;2023-11-21T13:22:30;99697.81;;;12.51;78.11